首页
METAR-TAF:

METAR-TAF

机场 :

Kerteh, 马来西亚

纬度: 04-32-15N, 经度: 103-25-36E, 海拔: 5米

当前天气观测

该预报发布于1小时和8分钟前的23:00 UTC
静风
温度 25°C
湿度 94%
气压 1007 hPa
能见度10公里或以上
少量云层高于1000英尺

METAR: WMKE 282300Z 00000KT 9999 FEW010 25/24 Q1007

时间: 08:08 (00:08 UTC)

预报

该预报发布于1小时和8分钟前的23:00 UTC
预报有效从29日的 00点(UTC)到 30日的 00点(UTC)
风速6节,风向南转西南
能见度10公里或以上
少量云层高于1700英尺

TAF: WMKE 282300Z 2900/3000 20006KT 9999 FEW017

超过4000个机场的气象观测和天气预报(METAR&TAF报告)。

可查询的气象台以黄色和红色小点在地图上表示。

将鼠标移到小点上方,可查看气象台名称。

然后点击查看天气观测和预报。

如需切换地图:点击带黑十字的绿色按钮放大地图;点击带横线的绿色按钮缩小地图;或者点击绿色箭头查看邻近地区的地图。


METAR-TAF: